createdAt,value
2022-12-16T00:01:19.524Z,-4.14
2022-12-16T00:03:43.535Z,-4.15
2022-12-16T00:06:07.208Z,-4.16
2022-12-16T00:08:32.608Z,-4.22
2022-12-16T00:10:57.400Z,-4.28
2022-12-16T00:13:20.271Z,-4.31
2022-12-16T00:15:42.886Z,-4.35
2022-12-16T00:18:05.543Z,-4.40
2022-12-16T00:20:28.086Z,-4.43
2022-12-16T00:22:51.381Z,-4.43
2022-12-16T00:25:14.215Z,-4.42
2022-12-16T00:27:36.700Z,-4.41
2022-12-16T00:29:59.527Z,-4.39
2022-12-16T00:32:22.666Z,-4.41
2022-12-16T00:34:45.220Z,-4.42
2022-12-16T00:37:07.853Z,-4.42
2022-12-16T00:39:31.316Z,-4.44
2022-12-16T00:41:53.829Z,-4.44
2022-12-16T00:44:17.737Z,-4.42
2022-12-16T00:46:40.287Z,-4.41
2022-12-16T00:49:02.906Z,-4.44
2022-12-16T00:51:25.532Z,-4.48
2022-12-16T00:53:48.043Z,-4.52
2022-12-16T00:56:13.895Z,-4.60
2022-12-16T00:58:37.196Z,-4.65
2022-12-16T01:01:00.088Z,-4.69
2022-12-16T01:03:22.750Z,-4.74
2022-12-16T01:05:45.389Z,-4.73
2022-12-16T01:08:07.883Z,-4.73
2022-12-16T01:10:30.396Z,-4.71
2022-12-16T01:12:53.166Z,-4.66
2022-12-16T01:15:18.660Z,-4.59
2022-12-16T01:17:41.651Z,-4.51
2022-12-16T01:20:05.052Z,-4.45
2022-12-16T01:22:29.253Z,-4.38
2022-12-16T01:24:51.843Z,-4.28
2022-12-16T01:27:14.752Z,-4.17
2022-12-16T01:29:37.326Z,-4.09
2022-12-16T01:31:59.973Z,-4.04
2022-12-16T01:34:23.284Z,-4.01
2022-12-16T01:36:45.820Z,-4.00
2022-12-16T01:39:09.201Z,-4.01
2022-12-16T01:41:31.903Z,-4.06
2022-12-16T01:44:08.661Z,-4.10
2022-12-16T01:46:31.185Z,-4.14
2022-12-16T01:48:57.036Z,-4.19
2022-12-16T01:51:24.349Z,-4.24
2022-12-16T01:53:48.529Z,-4.29
2022-12-16T01:56:12.909Z,-4.32
2022-12-16T01:58:37.016Z,-4.36
2022-12-16T02:01:01.570Z,-4.44
2022-12-16T02:03:25.511Z,-4.49
2022-12-16T02:05:48.545Z,-4.52
2022-12-16T02:08:12.564Z,-4.50
2022-12-16T02:10:42.618Z,-4.44
2022-12-16T02:13:10.168Z,-4.38
2022-12-16T02:15:39.407Z,-4.30
2022-12-16T02:18:09.711Z,-4.24
2022-12-16T02:20:44.527Z,-4.22
2022-12-16T02:23:21.259Z,-4.19
2022-12-16T02:26:04.111Z,-4.17
2022-12-16T02:28:34.431Z,-4.19
2022-12-16T02:31:07.996Z,-4.21
2022-12-16T02:33:43.492Z,-4.25
2022-12-16T02:36:10.673Z,-4.35
2022-12-16T02:38:37.784Z,-4.42
2022-12-16T02:41:01.727Z,-4.50
2022-12-16T02:43:35.380Z,-4.57
2022-12-16T02:45:58.473Z,-4.62
2022-12-16T02:48:21.301Z,-4.67
2022-12-16T02:50:45.731Z,-4.69
2022-12-16T02:53:09.518Z,-4.71
2022-12-16T02:55:37.412Z,-4.76
2022-12-16T02:58:04.382Z,-4.79
2022-12-16T03:00:30.107Z,-4.79
2022-12-16T03:02:56.852Z,-4.78
2022-12-16T03:05:21.509Z,-4.76
2022-12-16T03:07:44.865Z,-4.74
2022-12-16T03:10:10.366Z,-4.73
2022-12-16T03:12:33.706Z,-4.71
2022-12-16T03:14:56.288Z,-4.72
2022-12-16T03:17:19.987Z,-4.73
2022-12-16T03:19:45.534Z,-4.73
2022-12-16T03:22:11.477Z,-4.73
2022-12-16T03:24:34.822Z,-4.75
2022-12-16T03:27:02.145Z,-4.77
2022-12-16T03:29:27.695Z,-4.78
2022-12-16T03:31:52.567Z,-4.82
2022-12-16T03:34:17.100Z,-4.82
2022-12-16T03:36:41.473Z,-4.84
2022-12-16T03:39:05.918Z,-4.88
2022-12-16T03:41:30.026Z,-4.90
2022-12-16T03:43:52.892Z,-4.91
2022-12-16T03:46:16.301Z,-4.91
2022-12-16T03:48:44.808Z,-4.90
2022-12-16T03:51:07.739Z,-4.91
2022-12-16T03:53:30.576Z,-4.93
2022-12-16T03:55:53.476Z,-4.92
2022-12-16T03:58:16.006Z,-4.91
2022-12-16T04:00:39.120Z,-4.91
2022-12-16T04:03:01.952Z,-4.90
2022-12-16T04:05:24.830Z,-4.91
2022-12-16T04:07:47.379Z,-4.90
2022-12-16T04:10:10.283Z,-4.89
2022-12-16T04:12:51.439Z,-4.88
2022-12-16T04:15:32.400Z,-4.89
2022-12-16T04:18:13.534Z,-4.91
2022-12-16T04:20:55.493Z,-4.89
2022-12-16T04:23:37.021Z,-4.84
2022-12-16T04:25:59.772Z,-4.81
2022-12-16T04:28:22.467Z,-4.78
2022-12-16T04:30:45.173Z,-4.75
2022-12-16T04:33:28.461Z,-4.72
2022-12-16T04:36:09.484Z,-4.70
2022-12-16T04:38:50.716Z,-4.70
2022-12-16T04:41:32.199Z,-4.70
2022-12-16T04:44:13.523Z,-4.73
2022-12-16T04:46:54.930Z,-4.76
2022-12-16T04:49:36.035Z,-4.80
2022-12-16T04:52:17.447Z,-4.84
2022-12-16T04:54:58.612Z,-4.88
2022-12-16T04:57:39.504Z,-4.92
2022-12-16T05:00:21.750Z,-4.95
2022-12-16T05:03:05.895Z,-4.95
2022-12-16T05:05:46.793Z,-4.96
2022-12-16T05:08:27.981Z,-4.96
2022-12-16T05:11:14.095Z,-4.98
2022-12-16T05:13:55.255Z,-4.94
2022-12-16T05:16:36.124Z,-4.93
2022-12-16T05:19:19.352Z,-4.91
2022-12-16T05:22:08.420Z,-4.90
2022-12-16T05:24:53.038Z,-4.88
2022-12-16T05:27:36.730Z,-4.86
2022-12-16T05:30:17.887Z,-4.84
2022-12-16T05:32:58.814Z,-4.84
2022-12-16T05:35:39.843Z,-4.83
2022-12-16T05:38:20.954Z,-4.82
2022-12-16T05:41:02.355Z,-4.82
2022-12-16T05:43:43.464Z,-4.80
2022-12-16T05:46:24.549Z,-4.77
2022-12-16T05:49:05.621Z,-4.76
2022-12-16T05:51:46.858Z,-4.76
2022-12-16T05:54:28.171Z,-4.72
2022-12-16T05:57:09.030Z,-4.68
2022-12-16T05:59:50.236Z,-4.67
2022-12-16T06:02:31.357Z,-4.67
2022-12-16T06:05:12.591Z,-4.66
2022-12-16T06:07:53.309Z,-4.63
2022-12-16T06:10:34.475Z,-4.61
2022-12-16T06:13:15.275Z,-4.60
2022-12-16T06:15:56.329Z,-4.61
2022-12-16T06:18:37.470Z,-4.64
2022-12-16T06:21:18.469Z,-4.67
2022-12-16T06:23:59.444Z,-4.68
2022-12-16T06:26:40.556Z,-4.70
2022-12-16T06:29:21.537Z,-4.72
2022-12-16T06:32:03.160Z,-4.72
2022-12-16T06:34:44.018Z,-4.70
2022-12-16T06:37:25.100Z,-4.70
2022-12-16T06:40:14.278Z,-4.74
2022-12-16T06:42:57.887Z,-4.75
2022-12-16T06:45:39.063Z,-4.76
2022-12-16T06:48:20.176Z,-4.79
2022-12-16T06:50:57.345Z,-4.78
2022-12-16T06:53:38.199Z,-4.76
2022-12-16T06:56:19.637Z,-4.73
2022-12-16T06:59:00.913Z,-4.71
2022-12-16T07:01:41.959Z,-4.66
2022-12-16T07:04:23.493Z,-4.59
2022-12-16T07:07:04.337Z,-4.52
2022-12-16T07:09:45.494Z,-4.45
2022-12-16T07:12:26.440Z,-4.40
2022-12-16T07:15:07.168Z,-4.33
2022-12-16T07:17:48.051Z,-4.29
2022-12-16T07:20:31.521Z,-4.23
2022-12-16T07:23:19.234Z,-4.20
2022-12-16T07:26:00.551Z,-4.15
2022-12-16T07:28:41.496Z,-4.12
2022-12-16T07:31:22.459Z,-4.12
2022-12-16T07:34:03.304Z,-4.14
2022-12-16T07:36:44.569Z,-4.17
2022-12-16T07:39:25.525Z,-4.18
2022-12-16T07:42:06.391Z,-4.20
2022-12-16T07:44:47.496Z,-4.24
2022-12-16T07:47:28.376Z,-4.30
2022-12-16T07:50:11.480Z,-4.33
2022-12-16T07:52:52.639Z,-4.39
2022-12-16T07:55:36.447Z,-4.43
2022-12-16T07:58:17.475Z,-4.46
2022-12-16T08:00:58.314Z,-4.46
2022-12-16T08:03:39.316Z,-4.45
2022-12-16T08:06:20.409Z,-4.47
2022-12-16T08:09:01.295Z,-4.48
2022-12-16T08:11:42.110Z,-4.48
2022-12-16T08:14:22.725Z,-4.48
2022-12-16T08:17:03.645Z,-4.47
2022-12-16T08:19:44.985Z,-4.47
2022-12-16T08:22:26.671Z,-4.45
2022-12-16T08:25:07.934Z,-4.38
2022-12-16T08:27:48.515Z,-4.31
2022-12-16T08:30:30.188Z,-4.19
2022-12-16T08:33:18.911Z,-4.11
2022-12-16T08:36:01.166Z,-4.06
2022-12-16T08:38:42.177Z,-3.98
2022-12-16T08:41:23.888Z,-3.95
2022-12-16T08:44:05.348Z,-3.91
2022-12-16T08:46:46.562Z,-3.87
2022-12-16T08:49:27.928Z,-3.86
2022-12-16T08:52:09.049Z,-3.84
2022-12-16T08:54:49.275Z,-3.83
2022-12-16T08:57:30.854Z,-3.85
2022-12-16T09:00:11.684Z,-3.86
2022-12-16T09:02:53.132Z,-3.89
2022-12-16T09:05:37.147Z,-3.96
2022-12-16T09:08:18.807Z,-4.02
2022-12-16T09:11:00.316Z,-4.05
2022-12-16T09:13:41.075Z,-4.08
2022-12-16T09:16:22.330Z,-4.08
2022-12-16T09:19:03.634Z,-4.05
2022-12-16T09:21:44.688Z,-4.00
2022-12-16T09:24:25.971Z,-3.95
2022-12-16T09:27:09.066Z,-3.93
2022-12-16T09:29:50.745Z,-3.92
2022-12-16T09:32:27.931Z,-3.93
2022-12-16T09:35:13.459Z,-3.89
2022-12-16T09:37:54.699Z,-3.82
2022-12-16T09:40:36.894Z,-3.77
2022-12-16T09:43:21.372Z,-3.70
2022-12-16T09:46:06.731Z,-3.63
2022-12-16T09:48:53.076Z,-3.53
2022-12-16T09:51:34.594Z,-3.42
2022-12-16T09:54:15.884Z,-3.35
2022-12-16T09:56:57.203Z,-3.28
2022-12-16T09:59:40.591Z,-3.20
2022-12-16T10:02:22.709Z,-3.13
2022-12-16T10:05:05.876Z,-3.03
2022-12-16T10:07:48.786Z,-3.00
2022-12-16T10:10:38.587Z,-2.96
2022-12-16T10:13:25.914Z,-2.92
2022-12-16T10:16:17.935Z,-2.91
2022-12-16T10:19:08.630Z,-2.92
2022-12-16T10:21:54.421Z,-2.92
2022-12-16T10:24:39.636Z,-2.93
2022-12-16T10:27:26.025Z,-2.96
2022-12-16T10:30:06.589Z,-2.97
2022-12-16T10:32:50.401Z,-2.99
2022-12-16T10:35:36.950Z,-3.02
2022-12-16T10:38:18.609Z,-3.07
2022-12-16T10:40:59.982Z,-3.09
2022-12-16T10:43:50.249Z,-3.11
2022-12-16T10:46:36.953Z,-3.12
2022-12-16T10:49:18.123Z,-3.13
2022-12-16T10:52:09.305Z,-3.13
2022-12-16T10:54:53.994Z,-3.11
2022-12-16T10:57:41.035Z,-3.08
2022-12-16T11:00:29.458Z,-3.05
2022-12-16T11:03:10.721Z,-3.05
2022-12-16T11:05:52.602Z,-3.03
2022-12-16T11:08:47.304Z,-3.00
2022-12-16T11:11:32.598Z,-2.98
2022-12-16T11:14:26.555Z,-2.95
2022-12-16T11:17:27.246Z,-2.94
2022-12-16T11:20:24.014Z,-2.93
2022-12-16T11:23:05.187Z,-2.90
2022-12-16T11:25:46.705Z,-2.89
2022-12-16T11:28:30.551Z,-2.86
2022-12-16T11:31:18.359Z,-2.80
2022-12-16T11:34:00.410Z,-2.71
2022-12-16T11:36:42.367Z,-2.62
2022-12-16T11:39:24.142Z,-2.54
2022-12-16T11:42:06.517Z,-2.52
2022-12-16T11:44:52.308Z,-2.44
2022-12-16T11:47:39.111Z,-2.41
2022-12-16T11:50:29.967Z,-2.40
2022-12-16T11:53:13.151Z,-2.33
2022-12-16T11:56:15.723Z,-2.31
2022-12-16T11:59:00.372Z,-2.32
2022-12-16T12:01:45.822Z,-2.35
2022-12-16T12:04:27.112Z,-2.37
2022-12-16T12:07:17.020Z,-2.35
2022-12-16T12:10:02.631Z,-2.38
2022-12-16T12:12:48.807Z,-2.40
2022-12-16T12:15:45.252Z,-2.44
2022-12-16T12:18:33.520Z,-2.44
2022-12-16T12:21:24.994Z,-2.44
2022-12-16T12:24:09.386Z,-2.46
2022-12-16T12:26:50.816Z,-2.44
2022-12-16T12:29:36.038Z,-2.43
2022-12-16T12:32:21.873Z,-2.47
2022-12-16T12:35:08.520Z,-2.48
2022-12-16T12:37:52.464Z,-2.46
2022-12-16T12:40:49.735Z,-2.45
2022-12-16T12:43:39.802Z,-2.41
2022-12-16T12:46:26.164Z,-2.40
2022-12-16T12:49:12.115Z,-2.43
2022-12-16T12:51:58.822Z,-2.45
2022-12-16T12:54:48.257Z,-2.47
2022-12-16T12:57:32.020Z,-2.47
2022-12-16T13:00:14.944Z,-2.51
2022-12-16T13:03:00.350Z,-2.53
2022-12-16T13:05:53.512Z,-2.57
2022-12-16T13:08:51.016Z,-2.58
2022-12-16T13:11:35.345Z,-2.57
2022-12-16T13:14:16.738Z,-2.56
2022-12-16T13:17:25.798Z,-2.51
2022-12-16T13:20:16.383Z,-2.45
2022-12-16T13:22:57.737Z,-2.40
2022-12-16T13:25:49.292Z,-2.37
2022-12-16T13:28:37.918Z,-2.36
2022-12-16T13:31:25.529Z,-2.36
2022-12-16T13:34:09.384Z,-2.38
2022-12-16T13:36:53.171Z,-2.44
2022-12-16T13:39:40.678Z,-2.50
2022-12-16T13:42:30.280Z,-2.58
2022-12-16T13:45:15.723Z,-2.66
2022-12-16T13:48:11.025Z,-2.70
2022-12-16T13:50:55.828Z,-2.75
2022-12-16T13:53:38.250Z,-2.80
2022-12-16T13:56:19.779Z,-2.89
2022-12-16T13:59:02.976Z,-2.95
2022-12-16T14:01:48.140Z,-3.02
2022-12-16T14:04:33.007Z,-3.07
2022-12-16T14:07:21.278Z,-3.11
2022-12-16T14:10:13.804Z,-3.16
2022-12-16T14:13:01.892Z,-3.17
2022-12-16T14:15:50.794Z,-3.19
2022-12-16T14:18:43.290Z,-3.21
2022-12-16T14:21:25.143Z,-3.20
2022-12-16T14:24:10.432Z,-3.20
2022-12-16T14:26:54.331Z,-3.22
2022-12-16T14:29:38.685Z,-3.27
2022-12-16T14:32:19.612Z,-3.31
2022-12-16T14:35:00.700Z,-3.38
2022-12-16T14:37:42.405Z,-3.43
2022-12-16T14:40:24.985Z,-3.46
2022-12-16T14:43:11.258Z,-3.50
2022-12-16T14:45:55.603Z,-3.52
2022-12-16T14:48:49.260Z,-3.56
2022-12-16T14:51:43.046Z,-3.57
2022-12-16T14:54:43.562Z,-3.56
2022-12-16T14:57:28.440Z,-3.54
2022-12-16T15:00:18.826Z,-3.53
2022-12-16T15:03:01.542Z,-3.50
2022-12-16T15:05:46.784Z,-3.49
2022-12-16T15:08:29.870Z,-3.48
2022-12-16T15:11:10.733Z,-3.45
2022-12-16T15:13:52.786Z,-3.38
2022-12-16T15:16:36.716Z,-3.31
2022-12-16T15:19:20.053Z,-3.23
2022-12-16T15:22:01.356Z,-3.16
2022-12-16T15:24:43.582Z,-3.15
2022-12-16T15:27:40.662Z,-3.12
2022-12-16T15:30:41.759Z,-3.11
2022-12-16T15:33:23.803Z,-3.14
2022-12-16T15:36:04.974Z,-3.17
2022-12-16T15:38:47.351Z,-3.19
2022-12-16T15:41:37.793Z,-3.23
2022-12-16T15:44:19.248Z,-3.28
2022-12-16T15:47:05.379Z,-3.32
2022-12-16T15:49:49.201Z,-3.37
2022-12-16T15:52:50.289Z,-3.41
2022-12-16T15:55:43.451Z,-3.45
2022-12-16T15:58:30.447Z,-3.49
2022-12-16T16:01:15.702Z,-3.50
2022-12-16T16:03:57.020Z,-3.54
2022-12-16T16:06:39.645Z,-3.56
2022-12-16T16:09:29.892Z,-3.57
2022-12-16T16:12:11.035Z,-3.58
2022-12-16T16:14:52.003Z,-3.56
2022-12-16T16:17:38.762Z,-3.56
2022-12-16T16:20:30.796Z,-3.57
2022-12-16T16:23:17.251Z,-3.58
2022-12-16T16:26:02.209Z,-3.59
2022-12-16T16:28:45.360Z,-3.61
2022-12-16T16:31:29.182Z,-3.64
2022-12-16T16:34:08.895Z,-3.66
2022-12-16T16:36:49.890Z,-3.67
2022-12-16T16:39:30.799Z,-3.68
2022-12-16T16:42:13.257Z,-3.64
2022-12-16T16:44:54.110Z,-3.61
2022-12-16T16:47:35.623Z,-3.56
2022-12-16T16:50:19.481Z,-3.54
2022-12-16T16:53:00.704Z,-3.52
2022-12-16T16:55:42.870Z,-3.51
2022-12-16T16:58:25.287Z,-3.49
2022-12-16T17:01:06.718Z,-3.47
2022-12-16T17:03:47.898Z,-3.47
2022-12-16T17:06:28.996Z,-3.51
2022-12-16T17:09:09.978Z,-3.52
2022-12-16T17:11:51.775Z,-3.53
2022-12-16T17:14:51.651Z,-3.51
2022-12-16T17:17:32.458Z,-3.53
2022-12-16T17:20:13.344Z,-3.54
2022-12-16T17:22:55.118Z,-3.51
2022-12-16T17:25:38.315Z,-3.50
2022-12-16T17:28:19.606Z,-3.51
2022-12-16T17:31:00.863Z,-3.51
2022-12-16T17:33:50.264Z,-3.51
2022-12-16T17:36:32.255Z,-3.52
2022-12-16T17:39:18.533Z,-3.51
2022-12-16T17:42:00.029Z,-3.49
2022-12-16T17:44:40.998Z,-3.45
2022-12-16T17:47:22.022Z,-3.44
2022-12-16T17:50:03.185Z,-3.43
2022-12-16T17:52:44.467Z,-3.43
2022-12-16T17:55:27.611Z,-3.44
2022-12-16T17:58:08.588Z,-3.48
2022-12-16T18:00:49.878Z,-3.50
2022-12-16T18:03:32.758Z,-3.49
2022-12-16T18:06:15.316Z,-3.50
2022-12-16T18:08:56.490Z,-3.50
2022-12-16T18:11:39.052Z,-3.51
2022-12-16T18:14:20.344Z,-3.52
2022-12-16T18:17:12.491Z,-3.52
2022-12-16T18:19:53.644Z,-3.47
2022-12-16T18:22:34.722Z,-3.40
2022-12-16T18:25:17.972Z,-3.36
2022-12-16T18:27:59.084Z,-3.36
2022-12-16T18:30:39.958Z,-3.34
2022-12-16T18:33:21.911Z,-3.32
2022-12-16T18:36:03.010Z,-3.31
2022-12-16T18:38:44.534Z,-3.31
2022-12-16T18:41:32.352Z,-3.32
2022-12-16T18:44:13.192Z,-3.30
2022-12-16T18:46:54.142Z,-3.28
2022-12-16T18:49:35.349Z,-3.25
2022-12-16T18:52:16.239Z,-3.24
2022-12-16T18:54:57.282Z,-3.21
2022-12-16T18:57:40.001Z,-3.18
2022-12-16T19:00:21.838Z,-3.19
2022-12-16T19:03:03.353Z,-3.17
2022-12-16T19:05:44.794Z,-3.15
2022-12-16T19:08:25.871Z,-3.14
2022-12-16T19:11:07.124Z,-3.11
2022-12-16T19:13:47.846Z,-3.09
2022-12-16T19:16:28.986Z,-3.07
2022-12-16T19:19:12.729Z,-3.03
2022-12-16T19:21:57.745Z,-3.00
2022-12-16T19:24:38.734Z,-2.97
2022-12-16T19:27:20.064Z,-2.97
2022-12-16T19:30:01.554Z,-2.99
2022-12-16T19:32:42.993Z,-2.99
2022-12-16T19:35:24.887Z,-3.00
2022-12-16T19:38:05.934Z,-3.03
2022-12-16T19:40:47.550Z,-3.09
2022-12-16T19:43:28.288Z,-3.12
2022-12-16T19:46:12.786Z,-3.16
2022-12-16T19:48:56.098Z,-3.17
2022-12-16T19:51:39.613Z,-3.18
2022-12-16T19:54:20.949Z,-3.17
2022-12-16T19:57:02.076Z,-3.14
2022-12-16T19:59:43.383Z,-3.11
2022-12-16T20:02:24.905Z,-3.08
2022-12-16T20:05:06.479Z,-3.08
2022-12-16T20:07:47.442Z,-3.09
2022-12-16T20:10:28.542Z,-3.09
2022-12-16T20:13:09.595Z,-3.10
2022-12-16T20:15:50.334Z,-3.11
2022-12-16T20:18:31.812Z,-3.09
2022-12-16T20:21:13.034Z,-3.05
2022-12-16T20:23:54.532Z,-3.04
2022-12-16T20:26:40.194Z,-3.05
2022-12-16T20:29:21.545Z,-3.06
2022-12-16T20:32:02.872Z,-3.07
2022-12-16T20:34:44.277Z,-3.07
2022-12-16T20:37:25.493Z,-3.06
2022-12-16T20:40:06.522Z,-3.06
2022-12-16T20:42:48.062Z,-3.04
2022-12-16T20:45:29.204Z,-3.00
2022-12-16T20:48:12.112Z,-2.94
2022-12-16T20:50:49.582Z,-2.89
2022-12-16T20:53:30.506Z,-2.85
2022-12-16T20:56:11.808Z,-2.83
2022-12-16T20:58:56.182Z,-2.85
2022-12-16T21:01:37.323Z,-2.90
2022-12-16T21:04:18.445Z,-2.93
2022-12-16T21:06:59.709Z,-2.98
2022-12-16T21:09:40.959Z,-3.01
2022-12-16T21:12:22.458Z,-3.08
2022-12-16T21:15:03.500Z,-3.12
2022-12-16T21:17:44.905Z,-3.18
2022-12-16T21:20:26.994Z,-3.24
2022-12-16T21:23:14.931Z,-3.27
2022-12-16T21:25:56.186Z,-3.31
2022-12-16T21:28:39.485Z,-3.31
2022-12-16T21:31:20.604Z,-3.33
2022-12-16T21:34:01.795Z,-3.32
2022-12-16T21:36:42.939Z,-3.32
2022-12-16T21:39:23.912Z,-3.31
2022-12-16T21:42:05.239Z,-3.30
2022-12-16T21:44:46.553Z,-3.30
2022-12-16T21:47:27.490Z,-3.28
2022-12-16T21:50:08.408Z,-3.23
2022-12-16T21:52:50.836Z,-3.17
2022-12-16T21:55:44.614Z,-3.09
2022-12-16T21:58:28.357Z,-3.04
2022-12-16T22:01:12.417Z,-3.00
2022-12-16T22:03:53.185Z,-3.00
2022-12-16T22:06:34.771Z,-3.01
2022-12-16T22:09:16.017Z,-3.06
2022-12-16T22:11:57.241Z,-3.10
2022-12-16T22:14:38.330Z,-3.13
2022-12-16T22:17:19.907Z,-3.17
2022-12-16T22:20:01.217Z,-3.23
2022-12-16T22:22:42.576Z,-3.29
2022-12-16T22:25:38.867Z,-3.34
2022-12-16T22:28:19.760Z,-3.37
2022-12-16T22:31:03.305Z,-3.39
2022-12-16T22:33:59.194Z,-3.37
2022-12-16T22:36:40.007Z,-3.35
2022-12-16T22:39:20.796Z,-3.36
2022-12-16T22:42:01.709Z,-3.38
2022-12-16T22:44:42.929Z,-3.37
2022-12-16T22:47:20.169Z,-3.35
2022-12-16T22:50:01.396Z,-3.32
2022-12-16T22:52:42.815Z,-3.24
2022-12-16T22:55:24.271Z,-3.16
2022-12-16T22:58:05.873Z,-3.12
2022-12-16T23:00:47.317Z,-3.07
2022-12-16T23:03:32.526Z,-3.01
2022-12-16T23:06:13.720Z,-2.98
2022-12-16T23:09:02.722Z,-2.93
2022-12-16T23:11:49.733Z,-2.91
2022-12-16T23:14:30.647Z,-2.94
2022-12-16T23:17:11.666Z,-3.00
2022-12-16T23:19:56.335Z,-3.08
2022-12-16T23:22:37.952Z,-3.13
2022-12-16T23:25:19.273Z,-3.19
2022-12-16T23:28:00.511Z,-3.27
2022-12-16T23:30:42.070Z,-3.32
2022-12-16T23:33:23.096Z,-3.37
2022-12-16T23:36:04.448Z,-3.39
2022-12-16T23:38:45.470Z,-3.41
2022-12-16T23:41:26.659Z,-3.41
2022-12-16T23:44:07.555Z,-3.40
2022-12-16T23:46:48.509Z,-3.38
2022-12-16T23:49:29.421Z,-3.36
2022-12-16T23:52:10.155Z,-3.35
2022-12-16T23:55:09.952Z,-3.29
2022-12-16T23:58:07.726Z,-3.27
